EW8697 Weather Reports


time (UTC)temp
C
wind
direction
speed
KPH
gust
KPH
rain 1hr
cm
rain 24hr
cm
rain mn
cm
humidity
%
barometer
mb
20240418171541 15 212 0.0 12.9 0.00 0.53 0.00 67 1013.0
20240418170021 15 295 1.6 12.9 0.00 0.53 0.00 65 1012.9
20240418164518 15 201 0.0 8.0 0.00 0.53 0.00 66 1013.0
20240418163043 14 262 0.0 14.5 0.00 0.53 0.00 68 1013.2
20240418161524 14 285 1.6 12.9 0.00 0.53 0.00 67 1013.0
20240418160031 14 307 0.0 0.0 0.00 0.53 0.00 67 1013.1
20240418154522 13 295 0.0 17.7 0.00 0.53 0.00 70 1013.2
20240418153016 13 313 0.0 0.0 0.00 0.53 0.00 70 1013.3
20240418151514 12 193 0.0 3.2 0.00 0.53 0.00 73 1013.2
20240418150029 12 240 0.0 8.0 0.00 0.53 0.00 74 1013.3
20240418144533 12 255 1.6 14.5 0.00 0.53 0.00 73 1013.1
20240418143024 12 304 0.0 0.0 0.00 0.53 0.00 73 1013.1
20240418141518 12 297 0.0 1.6 0.00 0.53 0.00 73 1012.9
20240418140018 12 310 8.0 19.3 0.00 0.53 0.00 73 1013.0
20240418134510 12 263 6.4 16.1 0.00 0.53 0.00 73 1012.7
20240418133036 12 327 6.4 16.1 0.00 0.53 0.00 74 1012.6
20240418131535 12 263 0.0 25.7 0.00 0.53 0.00 74 1012.1
20240418130027 12 312 9.7 22.5 0.00 0.53 0.00 74 1012.1
20240418124520 12 259 0.0 9.7 0.00 0.53 0.00 77 1011.2
20240418123019 12 243 0.0 16.1 0.00 0.53 0.00 78 1010.8
20240418121528 12 239 8.0 20.9 0.00 0.53 0.00 79 1010.7
20240418120007 12 273 3.2 12.9 0.00 0.53 0.00 82 1010.4
20240418114532 12 246 0.0 0.0 0.00 0.53 0.00 82 1010.3
20240418113023 12 255 0.0 0.0 0.00 0.53 0.00 83 1010.1
20240418111525 12 240 0.0 0.0 0.00 0.53 0.00 82 1009.8
20240418110015 12 230 0.0 0.0 0.00 0.53 0.00 83 1009.6
20240418104520 12 233 0.0 12.9 0.00 0.53 0.00 83 1009.3
20240418103031 12 240 0.0 8.0 0.00 0.53 0.00 83 1009.2
20240418101525 12 250 1.6 12.9 0.00 0.53 0.00 82 1009.0
20240418100023 12 248 0.0 0.0 0.00 0.53 0.00 83 1009.2
20240418094518 12 240 0.0 11.3 0.00 0.53 0.00 82 1009.0
20240418093027 12 241 3.2 9.7 0.00 0.53 0.00 82 1009.1
20240418091514 12 258 0.0 0.0 0.00 0.53 0.00 82 1009.0
20240418090014 12 257 3.2 8.0 0.00 0.53 0.00 82 1008.9
20240418084535 12 285 4.8 14.5 0.00 0.53 0.00 82 1008.7
20240418083038 12 259 1.6 12.9 0.00 0.53 0.00 82 1008.5
20240418081524 12 295 1.6 9.7 0.00 0.53 0.00 82 1008.3
20240418080019 12 252 3.2 9.7 0.00 0.53 0.00 82 1008.1
20240418074518 12 279 0.0 11.3 0.00 0.53 0.00 81 1008.0
20240418073024 12 237 1.6 9.7 0.00 0.53 0.00 82 1007.9
20240418071509 12 248 0.0 6.4 0.00 0.53 0.00 81 1007.6
20240418070050 13 282 6.4 16.1 0.00 0.53 0.00 80 1007.5
20240418064524 13 262 6.4 16.1 0.00 0.53 0.00 80 1007.3
20240418063024 13 223 0.0 0.0 0.00 0.53 0.00 80 1007.2
20240418061516 13 263 0.0 0.0 0.00 0.53 0.00 81 1007.1
20240418060012 13 250 0.0 0.0 0.00 0.53 0.00 80 1007.0
20240418054527 13 264 0.0 0.0 0.00 0.53 0.00 80 1007.0
20240418053019 13 250 0.0 0.0 0.00 0.53 0.00 80 1007.0
20240418051523 13 309 0.0 8.0 0.00 0.53 0.00 79 1006.8
20240418050018 13 244 0.0 0.0 0.00 0.53 0.00 80 1006.8
20240418044513 13 243 0.0 9.7 0.00 0.53 0.00 80 1006.7
20240418043030 13 238 0.0 8.0 0.00 0.53 0.00 80 1006.5
20240418041524 13 271 0.0 8.0 0.00 0.53 0.00 79 1006.4
20240418040026 14 266 0.0 6.4 0.00 0.53 0.00 79 1006.1
20240418034522 14 312 0.0 12.9 0.00 0.53 0.53 79 1006.1
20240418033034 14 284 0.0 9.7 0.00 0.53 0.53 80 1005.8
20240418031510 14 278 3.2 8.0 0.00 0.53 0.53 80 1005.9
20240418030006 14 285 1.6 6.4 0.00 0.53 0.53 80 1005.6
20240418024506 15 275 3.2 20.9 0.00 0.53 0.53 80 1005.7
20240418023007 14 266 0.0 4.8 0.00 0.53 0.53 83 1005.6
20240418021526 15 260 0.0 0.0 0.00 0.53 0.53 87 1005.5
20240418020025 15 236 0.0 0.0 0.00 0.53 0.53 89 1005.3
20240418014519 15 255 0.0 0.0 0.00 0.53 0.53 89 1004.7
20240418013016 15 230 0.0 0.0 0.00 0.53 0.53 89 1004.5
20240418011523 15 264 0.0 0.0 0.00 0.53 0.53 90 1004.5
20240418010008 15 250 0.0 8.0 0.00 0.53 0.53 90 1004.3
20240418004509 15 229 0.0 6.4 0.00 0.53 0.53 89 1003.8
20240418003038 15 232 1.6 11.3 0.00 0.53 0.53 89 1003.4
20240418001622 16 272 1.6 11.3 0.00 0.53 0.53 89 1003.0
20240418000020 16 253 0.0 0.0 0.00 0.53 0.53 89 1003.0
20240417234518 16 307 0.0 6.4 0.03 0.53 0.53 89 1002.7
20240417233010 16 263 0.0 14.5 0.10 0.53 0.53 89 1002.7
20240417231508 16 249 1.6 11.3 0.28 0.53 0.53 89 1002.7
20240417230042 16 257 1.6 14.5 0.28 0.53 0.53 89 1002.3
20240417224537 16 238 3.2 17.7 0.30 0.51 0.51 89 1001.9
20240417223028 17 273 12.9 32.2 0.36 0.43 0.43 88 1001.3
20240417221518 18 121 0.0 0.0 0.23 0.25 0.25 83 998.4
20240417220017 18 127 0.0 0.0 0.25 0.25 0.25 85 998.8
20240417214510 19 124 0.0 0.0 0.18 0.18 0.18 77 1000.4
20240417213027 20 183 0.0 0.0 0.08 0.08 0.08 71 1000.1
20240417211525 21 208 0.0 0.0 0.03 0.03 0.03 67 1000.2
20240417210022 22 200 0.0 0.0 0.00 0.00 0.00 64 1000.4
20240417204523 23 131 0.0 6.4 0.00 0.00 0.00 58 1000.6
20240417203014 23 160 0.0 20.9 0.00 0.00 0.00 58 1000.3
20240417201533 23 158 0.0 17.7 0.00 0.00 0.00 59 1000.6
20240417200030 23 134 0.0 1.6 0.00 0.00 0.00 58 1000.9
20240417194535 23 203 0.0 17.7 0.00 0.00 0.00 57 1001.4
20240417193031 23 212 0.0 20.9 0.00 0.00 0.00 56 1001.5
20240417191518 23 202 0.0 4.8 0.00 0.00 0.00 57 1001.6
20240417190011 23 130 0.0 14.5 0.00 0.00 0.00 60 1001.7
20240417184530 22 180 0.0 3.2 0.00 0.00 0.00 62 1002.0
20240417183025 22 197 0.0 14.5 0.00 0.00 0.00 66 1002.0
20240417181520 21 206 0.0 20.9 0.00 0.00 0.00 66 1002.5
20240417180024 21 163 0.0 16.1 0.00 0.00 0.00 65 1002.8
20240417174520 21 155 0.0 8.0 0.00 0.00 0.00 66 1003.1
20240417173009 21 202 0.0 25.7 0.00 0.00 0.00 66 1003.5